LiveATC.Net - Listen to live air traffic control over the Internet!


ICAO: KJCA  IATA: JCA   Airport: Jackson County Airport
City: Jefferson   State/Province: Georgia
Country: United States   Continent: North America
KJCA METAR Weather: KJCA 210415Z AUTO 06004KT 2 1/2SM VCTS OVC003 04/04 A3015 RMK AO2 LTG DSNT N NE AND SW P0001 PWINO T00450042
KJCA Flight Activity (FlightAware)
KJCA Airport Info   (iFlightPlanner)
KJCA VFR Sectional Chart   (iFlightPlanner) 
KJCA IFR Low Chart   (iFlightPlanner) 

KJCA CTAF
Feed Status: UP   Listeners: 0
Listen in your browser - HTML5 player (in browser, HTML5)
Click here to listen with your own player (launches your MP3 player)
KJCA CTAF Audio Archives
FacilityFrequency
Jefferson CTAF122.800

NOTICE

Unauthorized use prohibited. See LiveATC.net Terms of Service


Find LiveATC Audio Streams


Airport/ARTCC Code

Frequency Search
(e.g., 124.400, 128.75)
Site-wide search
 


Browse LiveATC Feeds
Top 50 LiveATC Feeds
LiveATC Feed Map
Bad Weather Areas

LiveATC FAQ
Offer LiveATC feed
Contact LiveATC.net
Press Inquiries

LiveATC on iPhone
LiveATC on Android

Windows Phone
Windows 8/10

LiveATC Mobile
(Mobile browser)

ATC Audio Archives
Interesting Recordings

LiveATC Forums


Home Page
About LiveATC.net
Make a Donation
Terms of Use
Privacy Policy

Canadian Air Freqs

AIRMETs/SIGMETs

FAA Airport Status
Nat'l Airspace Status
Arrival Demand Charts


Server Software By:
Icecast.org
Liquidsoap